KTIX

Space Coast Regional Airport

Titusville, Florida, USA
METAR KTIX 191248Z 00000KT 7SM SCT080 08/07 A3011 RMK LAST
Observed Flight Rules
Dec-19 @ 12:48 UTC (58 minutes ago) Visual Flight Rules
Visibility Clouds
7 miles
  • Scattered at 8,000' AGL
Temperatures Readings
Current 8°C / 46°F
Dewpoint 7°C / 45°F
Humidity 93%
Altimeter 30.11" Hg
Pressure 1020 hPa
Elevation 11
METAR KTIX 191248Z 00000KT 7SM SCT080 08/07 A3011 RMK LAST
Observed Flight Rules
Dec-19 @ 12:48 UTC
(58 minutes ago)
VFR
Clouds
  • Scattered at 8,000' AGL
Temperature Dewpoint
8°C / 46°F 7°C / 45°F
Humidity Altimeter Pressure
93% 30.11" Hg 1020 hPa